createdAt,value
2022-12-20T00:01:57.670Z,13.96
2022-12-20T00:04:26.547Z,13.98
2022-12-20T00:06:54.999Z,13.98
2022-12-20T00:09:25.295Z,14.00
2022-12-20T00:11:55.760Z,14.02
2022-12-20T00:14:24.234Z,14.02
2022-12-20T00:16:53.085Z,14.03
2022-12-20T00:19:21.864Z,14.03
2022-12-20T00:21:50.416Z,14.04
2022-12-20T00:24:25.628Z,14.07
2022-12-20T00:26:56.373Z,14.07
2022-12-20T00:29:24.712Z,14.08
2022-12-20T00:31:53.391Z,14.10
2022-12-20T00:34:22.267Z,14.12
2022-12-20T00:36:50.719Z,14.12
2022-12-20T00:39:19.178Z,14.13
2022-12-20T00:41:47.741Z,14.14
2022-12-20T00:44:18.123Z,14.15
2022-12-20T00:46:46.658Z,14.15
2022-12-20T00:49:16.525Z,14.17
2022-12-20T00:51:45.248Z,14.17
2022-12-20T00:54:13.972Z,14.18
2022-12-20T00:56:42.555Z,14.18
2022-12-20T00:59:10.965Z,14.20
2022-12-20T01:01:41.347Z,14.21
2022-12-20T01:04:10.197Z,14.22
2022-12-20T01:06:39.414Z,14.23
2022-12-20T01:09:09.018Z,14.23
2022-12-20T01:11:39.959Z,14.24
2022-12-20T01:14:12.171Z,14.25
2022-12-20T01:16:45.290Z,14.26
2022-12-20T01:19:18.904Z,14.26
2022-12-20T01:21:48.076Z,14.27
2022-12-20T01:24:19.431Z,14.30
2022-12-20T01:26:48.438Z,14.29
2022-12-20T01:29:17.272Z,14.30
2022-12-20T01:31:48.116Z,14.31
2022-12-20T01:34:17.760Z,14.32
2022-12-20T01:36:46.413Z,14.33
2022-12-20T01:39:17.549Z,14.35
2022-12-20T01:41:47.235Z,14.35
2022-12-20T01:44:56.925Z,14.36
2022-12-20T01:47:28.388Z,14.35
2022-12-20T01:49:58.478Z,14.37
2022-12-20T01:52:33.765Z,14.39
2022-12-20T01:55:09.952Z,14.42
2022-12-20T01:57:43.772Z,14.41
2022-12-20T02:00:14.004Z,14.41
2022-12-20T02:02:45.833Z,14.43
2022-12-20T02:05:15.539Z,14.43
2022-12-20T02:07:50.832Z,14.43
2022-12-20T02:10:22.747Z,14.44
2022-12-20T02:12:59.240Z,14.45
2022-12-20T02:15:41.117Z,14.45
2022-12-20T02:18:29.241Z,14.45
2022-12-20T02:21:24.459Z,14.45
2022-12-20T02:24:49.106Z,14.42
2022-12-20T02:27:51.962Z,14.40
2022-12-20T02:30:23.240Z,14.39
2022-12-20T02:33:01.250Z,14.40
2022-12-20T02:35:33.522Z,14.42
2022-12-20T02:38:05.348Z,14.42
2022-12-20T02:40:40.571Z,14.43
2022-12-20T02:43:33.078Z,14.43
2022-12-20T02:46:04.260Z,14.43
2022-12-20T02:48:34.834Z,14.43
2022-12-20T02:51:05.492Z,14.43
2022-12-20T02:53:35.039Z,14.43
2022-12-20T02:56:11.303Z,14.44
2022-12-20T02:58:48.742Z,14.43
2022-12-20T03:01:26.719Z,14.43
2022-12-20T03:03:56.647Z,14.43
2022-12-20T03:06:25.516Z,14.43
2022-12-20T03:08:54.018Z,14.43
2022-12-20T03:11:26.576Z,14.44
2022-12-20T03:13:55.341Z,14.44
2022-12-20T03:16:25.261Z,14.45
2022-12-20T03:18:53.980Z,14.45
2022-12-20T03:21:22.745Z,14.47
2022-12-20T03:23:51.324Z,14.47
2022-12-20T03:26:20.097Z,14.47
2022-12-20T03:28:54.650Z,14.47
2022-12-20T03:31:28.516Z,14.49
2022-12-20T03:33:57.584Z,14.48
2022-12-20T03:36:26.723Z,14.49
2022-12-20T03:38:59.975Z,14.49
2022-12-20T03:41:30.455Z,14.49
2022-12-20T03:43:59.562Z,14.50
2022-12-20T03:46:30.484Z,14.49
2022-12-20T03:48:59.554Z,14.49
2022-12-20T03:51:29.075Z,14.49
2022-12-20T03:53:57.532Z,14.48
2022-12-20T03:56:37.496Z,14.48
2022-12-20T03:59:06.324Z,14.50
2022-12-20T04:01:38.840Z,14.51
2022-12-20T04:04:09.003Z,14.49
2022-12-20T04:06:37.416Z,14.48
2022-12-20T04:09:06.152Z,14.48
2022-12-20T04:11:42.550Z,14.48
2022-12-20T04:14:14.768Z,14.48
2022-12-20T04:16:44.853Z,14.47
2022-12-20T04:19:13.747Z,14.46
2022-12-20T04:21:46.183Z,14.46
2022-12-20T04:24:16.407Z,14.46
2022-12-20T04:27:12.004Z,14.44
2022-12-20T04:29:40.917Z,14.45
2022-12-20T04:32:14.949Z,14.46
2022-12-20T04:34:43.749Z,14.47
2022-12-20T04:37:12.449Z,14.46
2022-12-20T04:39:49.166Z,14.47
2022-12-20T04:42:21.585Z,14.47
2022-12-20T04:44:50.905Z,14.47
2022-12-20T04:47:26.619Z,14.47
2022-12-20T04:49:56.605Z,14.47
2022-12-20T04:52:47.686Z,14.47
2022-12-20T04:55:18.065Z,14.47
2022-12-20T04:57:46.940Z,14.46
2022-12-20T05:00:17.244Z,14.46
2022-12-20T05:02:52.110Z,14.47
2022-12-20T05:05:22.988Z,14.47
2022-12-20T05:07:55.312Z,14.46
2022-12-20T05:10:24.813Z,14.47
2022-12-20T05:12:55.306Z,14.48
2022-12-20T05:15:34.187Z,14.47
2022-12-20T05:18:05.836Z,14.49
2022-12-20T05:20:44.014Z,14.48
2022-12-20T05:23:31.206Z,14.50
2022-12-20T05:26:19.507Z,14.47
2022-12-20T05:28:49.764Z,14.47
2022-12-20T05:31:18.205Z,14.47
2022-12-20T05:33:48.455Z,14.50
2022-12-20T05:36:18.570Z,14.47
2022-12-20T05:38:47.218Z,14.48
2022-12-20T05:41:19.960Z,14.48
2022-12-20T05:43:51.595Z,14.47
2022-12-20T05:46:20.125Z,14.49
2022-12-20T05:48:57.516Z,14.50
2022-12-20T05:51:26.745Z,14.51
2022-12-20T05:53:59.093Z,14.50
2022-12-20T05:56:50.962Z,14.48
2022-12-20T05:59:25.063Z,14.49
2022-12-20T06:01:54.959Z,14.49
2022-12-20T06:04:27.404Z,14.50
2022-12-20T06:06:55.867Z,14.50
2022-12-20T06:09:25.019Z,14.51
2022-12-20T06:12:02.562Z,14.51
2022-12-20T06:14:31.595Z,14.51
2022-12-20T06:17:00.032Z,14.52
2022-12-20T06:19:30.186Z,14.53
2022-12-20T06:22:01.057Z,14.53
2022-12-20T06:24:45.950Z,14.53
2022-12-20T06:27:18.561Z,14.54
2022-12-20T06:29:52.135Z,14.54
2022-12-20T06:32:23.878Z,14.55
2022-12-20T06:34:54.729Z,14.56
2022-12-20T06:37:23.484Z,14.56
2022-12-20T06:39:52.429Z,14.57
2022-12-20T06:42:21.948Z,14.58
2022-12-20T06:44:50.778Z,14.58
2022-12-20T06:47:19.445Z,14.59
2022-12-20T06:49:48.230Z,14.59
2022-12-20T06:52:24.948Z,14.60
2022-12-20T06:54:56.278Z,14.60
2022-12-20T06:57:25.268Z,14.62
2022-12-20T06:59:54.228Z,14.62
2022-12-20T07:02:27.011Z,14.62
2022-12-20T07:04:56.324Z,14.65
2022-12-20T07:07:26.662Z,14.67
2022-12-20T07:09:55.148Z,14.68
2022-12-20T07:12:24.331Z,14.68
2022-12-20T07:14:53.035Z,14.68
2022-12-20T07:17:21.694Z,14.68
2022-12-20T07:19:51.191Z,14.69
2022-12-20T07:22:19.819Z,14.70
2022-12-20T07:24:50.414Z,14.71
2022-12-20T07:27:18.930Z,14.72
2022-12-20T07:29:47.374Z,14.73
2022-12-20T07:32:16.817Z,14.74
2022-12-20T07:34:45.523Z,14.74
2022-12-20T07:37:14.290Z,14.76
2022-12-20T07:39:43.070Z,14.78
2022-12-20T07:42:14.043Z,14.79
2022-12-20T07:44:44.269Z,14.79
2022-12-20T07:47:12.698Z,14.80
2022-12-20T07:49:41.250Z,14.80
2022-12-20T07:52:11.487Z,14.82
2022-12-20T07:54:45.904Z,14.82
2022-12-20T07:57:21.281Z,14.82
2022-12-20T07:59:55.967Z,14.82
2022-12-20T08:02:29.006Z,14.83
2022-12-20T08:04:58.875Z,14.84
2022-12-20T08:07:29.792Z,14.85
2022-12-20T08:09:59.451Z,14.86
2022-12-20T08:12:31.665Z,14.87
2022-12-20T08:15:00.252Z,14.87
2022-12-20T08:17:28.682Z,14.88
2022-12-20T08:19:57.715Z,14.89
2022-12-20T08:22:26.153Z,14.88
2022-12-20T08:24:54.927Z,14.91
2022-12-20T08:27:23.304Z,14.91
2022-12-20T08:29:53.426Z,14.92
2022-12-20T08:32:21.980Z,14.93
2022-12-20T08:34:50.392Z,14.93
2022-12-20T08:37:19.182Z,14.93
2022-12-20T08:39:47.700Z,14.94
2022-12-20T08:42:16.105Z,14.93
2022-12-20T08:44:44.855Z,14.95
2022-12-20T08:47:15.832Z,14.95
2022-12-20T08:49:47.852Z,14.96
2022-12-20T08:52:16.782Z,14.97
2022-12-20T08:54:45.192Z,14.97
2022-12-20T08:57:14.001Z,14.98
2022-12-20T08:59:42.558Z,15.00
2022-12-20T09:02:11.166Z,14.99
2022-12-20T09:04:41.180Z,15.00
2022-12-20T09:07:09.824Z,15.02
2022-12-20T09:09:38.731Z,15.04
2022-12-20T09:12:07.697Z,15.05
2022-12-20T09:14:36.406Z,15.06
2022-12-20T09:17:04.875Z,15.08
2022-12-20T09:19:33.618Z,15.08
2022-12-20T09:22:04.353Z,15.11
2022-12-20T09:24:33.150Z,15.14
2022-12-20T09:27:01.656Z,15.15
2022-12-20T09:29:35.496Z,15.15
2022-12-20T09:32:04.735Z,15.16
2022-12-20T09:34:33.216Z,15.17
2022-12-20T09:37:03.998Z,15.17
2022-12-20T09:39:32.683Z,15.18
2022-12-20T09:42:01.539Z,15.20
2022-12-20T09:44:34.663Z,15.22
2022-12-20T09:47:10.766Z,15.22
2022-12-20T09:49:44.628Z,15.22
2022-12-20T09:52:41.970Z,15.22
2022-12-20T09:55:25.709Z,15.23
2022-12-20T09:58:15.302Z,15.22
2022-12-20T10:00:53.563Z,15.23
2022-12-20T10:03:25.527Z,15.23
2022-12-20T10:05:57.564Z,15.25
2022-12-20T10:08:45.367Z,15.26
2022-12-20T10:11:39.527Z,15.27
2022-12-20T10:14:28.625Z,15.27
2022-12-20T10:17:03.320Z,15.28
2022-12-20T10:19:53.701Z,15.29
2022-12-20T10:22:27.897Z,15.31
2022-12-20T10:25:08.159Z,15.35
2022-12-20T10:27:38.822Z,15.36
2022-12-20T10:30:15.711Z,15.39
2022-12-20T10:32:48.564Z,15.41
2022-12-20T10:35:26.147Z,15.43
2022-12-20T10:38:08.071Z,15.44
2022-12-20T10:43:40.225Z,15.47
2022-12-20T10:46:10.415Z,15.49
2022-12-20T10:48:41.014Z,15.50
2022-12-20T10:51:18.410Z,15.51
2022-12-20T10:53:57.413Z,15.52
2022-12-20T10:56:29.198Z,15.55
2022-12-20T10:59:00.807Z,15.55
2022-12-20T11:01:33.020Z,15.58
2022-12-20T11:04:04.795Z,15.60
2022-12-20T11:06:45.260Z,15.63
2022-12-20T11:09:29.774Z,15.64
2022-12-20T11:12:07.166Z,15.65
2022-12-20T11:14:39.880Z,15.67
2022-12-20T11:17:28.693Z,15.71
2022-12-20T11:20:26.845Z,15.72
2022-12-20T11:23:14.091Z,15.76
2022-12-20T11:26:01.162Z,15.80
2022-12-20T11:28:59.943Z,15.82
2022-12-20T11:31:41.621Z,15.84
2022-12-20T11:34:23.832Z,15.87
2022-12-20T11:37:19.335Z,15.88
2022-12-20T11:40:18.517Z,15.91
2022-12-20T11:43:00.407Z,15.94
2022-12-20T11:45:38.714Z,15.95
2022-12-20T11:48:36.578Z,15.96
2022-12-20T11:51:10.976Z,15.97
2022-12-20T11:53:52.731Z,15.99
2022-12-20T11:56:27.131Z,16.00
2022-12-20T11:59:01.914Z,16.00
2022-12-20T12:01:38.820Z,16.01
2022-12-20T12:04:16.995Z,16.03
2022-12-20T12:06:49.611Z,16.02
2022-12-20T12:09:25.987Z,16.01
2022-12-20T12:12:07.948Z,16.02
2022-12-20T12:14:50.351Z,16.03
2022-12-20T12:17:36.841Z,16.02
2022-12-20T12:20:23.528Z,16.02
2022-12-20T12:22:57.306Z,16.03
2022-12-20T12:25:26.387Z,16.02
2022-12-20T12:27:56.292Z,16.03
2022-12-20T12:30:25.233Z,16.02
2022-12-20T12:33:02.453Z,16.04
2022-12-20T12:36:20.289Z,16.03
2022-12-20T12:39:12.763Z,16.02
2022-12-20T12:42:11.771Z,16.01
2022-12-20T12:44:50.275Z,16.00
2022-12-20T12:47:24.600Z,16.01
2022-12-20T12:49:56.722Z,16.02
2022-12-20T12:52:42.462Z,16.03
2022-12-20T12:55:44.419Z,16.02
2022-12-20T12:58:35.292Z,16.01
2022-12-20T13:01:09.036Z,16.01
2022-12-20T13:03:46.736Z,16.01
2022-12-20T13:07:15.000Z,15.99
2022-12-20T13:09:45.264Z,16.00
2022-12-20T13:12:59.891Z,16.00
2022-12-20T13:16:06.507Z,15.99
2022-12-20T13:18:34.976Z,15.98
2022-12-20T13:21:38.490Z,16.01
2022-12-20T13:24:53.225Z,15.99
2022-12-20T13:27:34.862Z,16.00
2022-12-20T13:30:36.171Z,16.01
2022-12-20T13:33:26.289Z,16.02
2022-12-20T13:36:31.226Z,16.02
2022-12-20T13:39:02.954Z,16.02
2022-12-20T13:41:40.141Z,16.03
2022-12-20T13:44:34.331Z,16.05
2022-12-20T13:47:15.621Z,16.04
2022-12-20T13:49:45.884Z,16.03
2022-12-20T13:52:26.356Z,16.03
2022-12-20T13:54:58.551Z,16.04
2022-12-20T13:57:33.446Z,16.03
2022-12-20T14:00:07.853Z,16.02
2022-12-20T14:02:43.291Z,16.01
2022-12-20T14:05:20.360Z,16.01
2022-12-20T14:07:55.186Z,16.01
2022-12-20T14:10:27.600Z,16.01
2022-12-20T14:12:57.991Z,16.00
2022-12-20T14:15:30.811Z,15.99
2022-12-20T14:18:06.649Z,15.99
2022-12-20T14:20:37.214Z,15.99
2022-12-20T14:23:08.275Z,16.00
2022-12-20T14:25:43.293Z,15.99
2022-12-20T14:28:27.567Z,15.98
2022-12-20T14:30:57.477Z,15.97
2022-12-20T14:33:36.719Z,15.96
2022-12-20T14:36:12.607Z,15.96
2022-12-20T14:38:42.395Z,15.95
2022-12-20T14:41:35.233Z,15.96
2022-12-20T14:44:18.402Z,15.97
2022-12-20T14:46:52.142Z,15.95
2022-12-20T14:49:26.563Z,15.95
2022-12-20T14:52:09.195Z,15.94
2022-12-20T14:57:41.929Z,15.91
2022-12-20T15:00:22.535Z,15.91
2022-12-20T15:03:02.094Z,15.90
2022-12-20T15:05:48.941Z,15.88
2022-12-20T15:08:21.800Z,15.89
2022-12-20T15:11:01.127Z,15.88
2022-12-20T15:13:34.105Z,15.86
2022-12-20T15:16:07.232Z,15.86
2022-12-20T15:18:35.942Z,15.86
2022-12-20T15:21:08.466Z,15.87
2022-12-20T15:23:36.939Z,15.85
2022-12-20T15:26:05.530Z,15.85
2022-12-20T15:28:34.491Z,15.84
2022-12-20T15:31:06.013Z,15.85
2022-12-20T15:33:36.680Z,15.85
2022-12-20T15:36:05.305Z,15.85
2022-12-20T15:39:03.208Z,15.83
2022-12-20T15:41:25.475Z,15.84
2022-12-20T15:43:58.438Z,15.84
2022-12-20T15:46:29.422Z,15.83
2022-12-20T15:48:58.212Z,15.83
2022-12-20T15:51:32.263Z,15.84
2022-12-20T15:54:03.035Z,15.82
2022-12-20T15:56:32.119Z,15.82
2022-12-20T15:59:05.425Z,15.81
2022-12-20T16:01:48.013Z,15.80
2022-12-20T16:04:19.557Z,15.81
2022-12-20T16:06:50.765Z,15.80
2022-12-20T16:09:19.186Z,15.79
2022-12-20T16:11:48.244Z,15.79
2022-12-20T16:14:21.242Z,15.79
2022-12-20T16:16:51.437Z,15.77
2022-12-20T16:19:19.782Z,15.78
2022-12-20T16:21:50.953Z,15.78
2022-12-20T16:24:21.647Z,15.78
2022-12-20T16:26:51.651Z,15.77
2022-12-20T16:29:20.197Z,15.76
2022-12-20T16:31:50.097Z,15.76
2022-12-20T16:34:20.844Z,15.76
2022-12-20T16:36:49.301Z,15.76
2022-12-20T16:39:19.207Z,15.74
2022-12-20T16:41:47.573Z,15.75
2022-12-20T16:44:18.162Z,15.74
2022-12-20T16:46:46.989Z,15.73
2022-12-20T16:49:20.498Z,15.74
2022-12-20T16:51:50.974Z,15.74
2022-12-20T16:54:22.323Z,15.76
2022-12-20T16:56:55.508Z,15.77
2022-12-20T16:59:24.363Z,15.76
2022-12-20T17:01:56.226Z,15.76
2022-12-20T17:04:27.874Z,15.77
2022-12-20T17:06:56.317Z,15.76
2022-12-20T17:09:24.767Z,15.77
2022-12-20T17:11:53.457Z,15.76
2022-12-20T17:14:21.937Z,15.76
2022-12-20T17:16:50.304Z,15.76
2022-12-20T17:19:19.473Z,15.77
2022-12-20T17:24:35.905Z,15.75
2022-12-20T17:27:04.825Z,15.75
2022-12-20T17:29:33.173Z,15.77
2022-12-20T17:32:03.624Z,15.77
2022-12-20T17:34:32.616Z,15.79
2022-12-20T17:37:02.819Z,15.79
2022-12-20T17:39:31.175Z,15.79
2022-12-20T17:42:01.057Z,15.79
2022-12-20T17:44:30.359Z,15.79
2022-12-20T17:46:58.862Z,15.79
2022-12-20T17:49:27.246Z,15.81
2022-12-20T17:51:56.638Z,15.80
2022-12-20T17:54:35.107Z,15.81
2022-12-20T17:57:07.722Z,15.81
2022-12-20T17:59:36.253Z,15.80
2022-12-20T18:02:04.760Z,15.82
2022-12-20T18:04:33.327Z,15.81
2022-12-20T18:07:02.222Z,15.80
2022-12-20T18:09:32.129Z,15.81
2022-12-20T18:12:00.540Z,15.81
2022-12-20T18:14:29.530Z,15.80
2022-12-20T18:16:58.719Z,15.81
2022-12-20T18:19:27.473Z,15.82
2022-12-20T18:21:56.076Z,15.82
2022-12-20T18:24:24.525Z,15.83
2022-12-20T18:26:54.601Z,15.82
2022-12-20T18:29:23.011Z,15.83
2022-12-20T18:31:51.782Z,15.84
2022-12-20T18:34:20.571Z,15.83
2022-12-20T18:36:48.979Z,15.84
2022-12-20T18:39:17.629Z,15.85
2022-12-20T18:41:46.399Z,15.85
2022-12-20T18:44:16.229Z,15.85
2022-12-20T18:46:44.950Z,15.85
2022-12-20T18:49:13.468Z,15.85
2022-12-20T18:51:43.762Z,15.86
2022-12-20T18:54:14.794Z,15.88
2022-12-20T18:56:43.755Z,15.86
2022-12-20T18:59:13.127Z,15.87
2022-12-20T19:01:44.130Z,15.87
2022-12-20T19:04:14.292Z,15.87
2022-12-20T19:06:44.884Z,15.86
2022-12-20T19:09:15.289Z,15.86
2022-12-20T19:11:44.804Z,15.87
2022-12-20T19:14:13.893Z,15.85
2022-12-20T19:16:43.730Z,15.86
2022-12-20T19:19:12.549Z,15.85
2022-12-20T19:21:43.169Z,15.85
2022-12-20T19:24:13.648Z,15.85
2022-12-20T19:26:42.082Z,15.86
2022-12-20T19:29:11.632Z,15.87
2022-12-20T19:31:40.134Z,15.86
2022-12-20T19:34:13.405Z,15.87
2022-12-20T19:36:44.570Z,15.88
2022-12-20T19:39:16.844Z,15.88
2022-12-20T19:42:06.814Z,15.88
2022-12-20T19:44:34.053Z,15.87
2022-12-20T19:47:05.315Z,15.87
2022-12-20T19:49:36.487Z,15.88
2022-12-20T19:52:06.869Z,15.87
2022-12-20T19:54:36.357Z,15.87
2022-12-20T19:57:05.044Z,15.86
2022-12-20T19:59:33.498Z,15.85
2022-12-20T20:02:02.187Z,15.85
2022-12-20T20:04:31.266Z,15.86
2022-12-20T20:07:01.084Z,15.85
2022-12-20T20:09:30.218Z,15.86
2022-12-20T20:11:58.721Z,15.85
2022-12-20T20:14:27.147Z,15.84
2022-12-20T20:16:55.707Z,15.86
2022-12-20T20:19:24.240Z,15.85
2022-12-20T20:21:52.745Z,15.86
2022-12-20T20:24:23.167Z,15.87
2022-12-20T20:26:51.643Z,15.89
2022-12-20T20:29:20.614Z,15.90
2022-12-20T20:31:49.340Z,15.89
2022-12-20T20:34:17.775Z,15.90
2022-12-20T20:36:46.220Z,15.91
2022-12-20T20:39:14.642Z,15.91
2022-12-20T20:41:44.438Z,15.93
2022-12-20T20:44:13.905Z,15.93
2022-12-20T20:46:42.368Z,15.92
2022-12-20T20:49:10.986Z,15.93
2022-12-20T20:51:40.002Z,15.92
2022-12-20T20:54:08.563Z,15.92
2022-12-20T20:56:37.126Z,15.92
2022-12-20T20:59:11.878Z,15.92
2022-12-20T21:01:46.076Z,15.90
2022-12-20T21:04:14.514Z,15.90
2022-12-20T21:06:43.191Z,15.91
2022-12-20T21:09:12.119Z,15.91
2022-12-20T21:11:41.140Z,15.93
2022-12-20T21:14:11.078Z,15.93
2022-12-20T21:16:42.049Z,15.95
2022-12-20T21:19:11.947Z,15.94
2022-12-20T21:21:40.794Z,15.96
2022-12-20T21:24:09.846Z,15.96
2022-12-20T21:26:38.484Z,15.97
2022-12-20T21:29:06.951Z,15.97
2022-12-20T21:31:37.224Z,15.98
2022-12-20T21:34:05.783Z,15.97
2022-12-20T21:36:34.316Z,15.98
2022-12-20T21:39:03.593Z,15.99
2022-12-20T21:41:32.147Z,15.98
2022-12-20T21:44:01.699Z,16.00
2022-12-20T21:46:32.786Z,15.99
2022-12-20T21:49:02.924Z,16.00
2022-12-20T21:51:32.662Z,16.01
2022-12-20T21:54:03.334Z,15.99
2022-12-20T21:56:35.685Z,16.01
2022-12-20T21:59:05.237Z,16.02
2022-12-20T22:01:34.186Z,16.02
2022-12-20T22:04:06.630Z,16.03
2022-12-20T22:06:36.145Z,16.04
2022-12-20T22:09:07.422Z,16.03
2022-12-20T22:11:36.084Z,16.02
2022-12-20T22:14:04.917Z,16.03
2022-12-20T22:16:34.919Z,16.05
2022-12-20T22:19:05.084Z,16.04
2022-12-20T22:21:36.710Z,16.07
2022-12-20T22:24:06.809Z,16.06
2022-12-20T22:26:35.887Z,16.06
2022-12-20T22:29:07.390Z,16.07
2022-12-20T22:31:37.740Z,16.07
2022-12-20T22:34:08.104Z,16.07
2022-12-20T22:36:37.016Z,16.06
2022-12-20T22:39:05.806Z,16.07
2022-12-20T22:41:35.548Z,16.07
2022-12-20T22:44:04.948Z,16.09
2022-12-20T22:46:34.207Z,16.09
2022-12-20T22:49:02.659Z,16.10
2022-12-20T22:51:33.621Z,16.11
2022-12-20T22:54:02.469Z,16.10
2022-12-20T22:56:30.841Z,16.12
2022-12-20T22:58:59.453Z,16.13
2022-12-20T23:01:28.120Z,16.11
2022-12-20T23:03:56.814Z,16.12
2022-12-20T23:06:25.582Z,16.12
2022-12-20T23:08:56.071Z,16.12
2022-12-20T23:11:45.175Z,16.12
2022-12-20T23:14:34.933Z,16.10
2022-12-20T23:17:05.044Z,16.09
2022-12-20T23:19:54.375Z,16.08
2022-12-20T23:22:39.599Z,16.09
2022-12-20T23:25:12.845Z,16.08
2022-12-20T23:27:43.199Z,16.09
2022-12-20T23:30:15.061Z,16.11
2022-12-20T23:32:44.650Z,16.11
2022-12-20T23:35:16.047Z,16.11
2022-12-20T23:37:45.508Z,16.11
2022-12-20T23:40:17.833Z,16.13
2022-12-20T23:42:46.847Z,16.13
2022-12-20T23:45:15.741Z,16.12
2022-12-20T23:47:44.591Z,16.13
2022-12-20T23:50:13.475Z,16.13
2022-12-20T23:52:42.204Z,16.12
2022-12-20T23:55:11.191Z,16.12
2022-12-20T23:57:41.364Z,16.13
